createdAt,value
2022-07-29T00:00:09.412Z,11.70
2022-07-29T00:02:38.617Z,15.40
2022-07-29T00:05:08.317Z,11.80
2022-07-29T00:07:37.595Z,11.48
2022-07-29T00:10:07.076Z,13.10
2022-07-29T00:12:36.878Z,13.57
2022-07-29T00:15:09.328Z,13.50
2022-07-29T00:17:38.395Z,11.82
2022-07-29T00:20:08.772Z,13.32
2022-07-29T00:22:39.805Z,21.02
2022-07-29T00:25:09.815Z,13.18
2022-07-29T00:27:39.236Z,10.70
2022-07-29T00:30:10.731Z,9.82
2022-07-29T00:32:39.735Z,10.45
2022-07-29T00:38:03.917Z,9.80
2022-07-29T00:40:33.111Z,13.57
2022-07-29T00:43:02.906Z,11.63
2022-07-29T00:45:32.234Z,12.52
2022-07-29T00:48:01.199Z,18.15
2022-07-29T00:50:30.575Z,12.45
2022-07-29T00:52:59.997Z,8.55
2022-07-29T00:55:31.644Z,14.88
2022-07-29T00:58:01.495Z,11.82
2022-07-29T01:00:32.029Z,11.38
2022-07-29T01:03:01.094Z,12.88
2022-07-29T01:05:50.682Z,13.38
2022-07-29T01:08:22.411Z,14.80
2022-07-29T01:10:54.735Z,14.18
2022-07-29T01:13:24.463Z,15.30
2022-07-29T01:16:01.410Z,11.23
2022-07-29T01:18:34.238Z,11.10
2022-07-29T01:21:27.319Z,13.57
2022-07-29T01:24:24.744Z,12.18
2022-07-29T01:27:01.312Z,11.25
2022-07-29T01:29:40.316Z,12.32
2022-07-29T01:32:27.903Z,14.35
2022-07-29T01:35:04.275Z,14.90
2022-07-29T01:37:41.595Z,16.52
2022-07-29T01:40:16.619Z,16.05
2022-07-29T01:42:47.260Z,14.85
2022-07-29T01:45:21.793Z,15.00
2022-07-29T01:47:58.959Z,15.63
2022-07-29T01:50:35.271Z,12.73
2022-07-29T01:53:07.272Z,13.25
2022-07-29T01:55:40.793Z,15.13
2022-07-29T01:58:11.120Z,12.98
2022-07-29T02:00:43.873Z,14.20
2022-07-29T02:03:15.956Z,12.70
2022-07-29T02:05:49.082Z,14.00
2022-07-29T02:08:20.862Z,12.13
2022-07-29T02:10:52.156Z,11.73
2022-07-29T02:13:24.658Z,10.85
2022-07-29T02:15:56.114Z,10.13
2022-07-29T02:18:27.806Z,12.48
2022-07-29T02:20:58.739Z,11.60
2022-07-29T02:23:29.019Z,13.20
2022-07-29T02:26:00.079Z,13.70
2022-07-29T02:28:30.671Z,12.82
2022-07-29T02:31:04.479Z,14.70
2022-07-29T02:33:34.991Z,14.35
2022-07-29T02:36:05.076Z,15.45
2022-07-29T02:38:58.488Z,13.23
2022-07-29T02:41:31.118Z,13.20
2022-07-29T02:44:06.421Z,21.10
2022-07-29T02:46:38.951Z,15.70
2022-07-29T02:49:14.869Z,11.75
2022-07-29T02:51:47.512Z,12.23
2022-07-29T02:54:24.939Z,13.32
2022-07-29T02:56:56.630Z,13.48
2022-07-29T02:59:29.774Z,13.85
2022-07-29T03:02:01.333Z,15.32
2022-07-29T03:04:33.037Z,12.65
2022-07-29T03:07:04.057Z,14.13
2022-07-29T03:09:33.999Z,10.48
2022-07-29T03:12:03.803Z,13.93
2022-07-29T03:14:33.626Z,13.43
2022-07-29T03:17:05.407Z,14.48
2022-07-29T03:19:35.323Z,11.18
2022-07-29T03:22:04.791Z,15.85
2022-07-29T03:24:35.069Z,14.82
2022-07-29T03:27:05.246Z,15.02
2022-07-29T03:29:34.861Z,12.68
2022-07-29T03:32:08.877Z,14.02
2022-07-29T03:34:39.553Z,15.55
2022-07-29T03:37:09.153Z,13.32
2022-07-29T03:39:42.792Z,18.27
2022-07-29T03:42:15.930Z,17.02
2022-07-29T03:44:48.069Z,16.33
2022-07-29T03:47:21.484Z,19.13
2022-07-29T03:49:54.782Z,15.55
2022-07-29T03:52:24.114Z,12.30
2022-07-29T03:54:53.296Z,14.18
2022-07-29T03:57:26.099Z,13.38
2022-07-29T03:59:56.096Z,12.85
2022-07-29T04:02:30.724Z,18.13
2022-07-29T04:05:00.331Z,16.73
2022-07-29T04:07:30.174Z,13.77
2022-07-29T04:09:59.277Z,13.98
2022-07-29T04:12:28.245Z,15.25
2022-07-29T04:14:57.222Z,16.35
2022-07-29T04:17:27.550Z,16.45
2022-07-29T04:19:56.561Z,15.65
2022-07-29T04:22:25.555Z,16.58
2022-07-29T04:24:59.098Z,14.77
2022-07-29T04:27:32.494Z,16.80
2022-07-29T04:30:01.631Z,18.83
2022-07-29T04:32:32.319Z,16.27
2022-07-29T04:35:01.440Z,15.23
2022-07-29T04:37:30.371Z,14.85
2022-07-29T04:39:59.360Z,12.43
2022-07-29T04:42:29.271Z,12.55
2022-07-29T04:44:58.579Z,13.07
2022-07-29T04:47:31.804Z,14.90
2022-07-29T04:50:00.871Z,15.05
2022-07-29T04:52:29.799Z,13.75
2022-07-29T04:54:58.754Z,14.68
2022-07-29T04:57:27.757Z,12.38
2022-07-29T04:59:56.698Z,11.05
2022-07-29T05:02:25.710Z,10.95
2022-07-29T05:04:56.073Z,11.85
2022-07-29T05:07:25.038Z,10.45
2022-07-29T05:09:54.243Z,13.75
2022-07-29T05:12:23.301Z,11.38
2022-07-29T05:14:52.250Z,9.55
2022-07-29T05:17:21.313Z,10.75
2022-07-29T05:19:52.276Z,10.82
2022-07-29T05:22:23.386Z,11.52
2022-07-29T05:24:52.361Z,13.15
2022-07-29T05:27:21.270Z,10.15
2022-07-29T05:29:50.291Z,10.13
2022-07-29T05:32:19.230Z,10.75
2022-07-29T05:34:51.024Z,10.68
2022-07-29T05:37:22.740Z,11.23
2022-07-29T05:39:56.532Z,9.93
2022-07-29T05:42:26.557Z,9.40
2022-07-29T05:44:55.684Z,10.77
2022-07-29T05:47:25.311Z,13.02
2022-07-29T05:49:55.066Z,9.77
2022-07-29T05:52:25.750Z,14.18
2022-07-29T05:54:54.735Z,13.57
2022-07-29T05:57:25.267Z,11.57
2022-07-29T05:59:54.295Z,10.35
2022-07-29T06:02:23.321Z,11.93
2022-07-29T06:04:52.375Z,9.73
2022-07-29T06:07:21.336Z,11.73
2022-07-29T06:09:51.766Z,11.60
2022-07-29T06:12:21.003Z,9.90
2022-07-29T06:14:53.980Z,11.32
2022-07-29T06:17:23.363Z,10.80
2022-07-29T06:19:52.446Z,12.32
2022-07-29T06:22:21.507Z,10.52
2022-07-29T06:24:52.160Z,14.32
2022-07-29T06:27:21.106Z,11.93
2022-07-29T06:29:50.094Z,15.45
2022-07-29T06:32:20.170Z,13.50
2022-07-29T06:34:52.370Z,13.68
2022-07-29T06:37:21.715Z,14.70
2022-07-29T06:40:13.293Z,10.82
2022-07-29T06:42:44.739Z,12.18
2022-07-29T06:45:14.234Z,12.80
2022-07-29T06:47:43.153Z,11.77
2022-07-29T06:50:13.507Z,10.77
2022-07-29T06:52:42.986Z,20.23
2022-07-29T06:55:13.454Z,13.07
2022-07-29T06:57:54.476Z,14.23
2022-07-29T07:00:23.566Z,12.50
2022-07-29T07:02:52.641Z,9.00
2022-07-29T07:05:21.740Z,8.52
2022-07-29T07:07:50.707Z,12.32
2022-07-29T07:10:21.253Z,8.75
2022-07-29T07:12:50.481Z,9.80
2022-07-29T07:15:22.838Z,11.02
2022-07-29T07:18:08.334Z,11.27
2022-07-29T07:20:38.518Z,10.55
2022-07-29T07:23:07.549Z,9.90
2022-07-29T07:25:37.962Z,11.52
2022-07-29T07:28:08.217Z,9.18
2022-07-29T07:30:37.418Z,14.57
2022-07-29T07:33:06.814Z,15.88
2022-07-29T07:35:35.947Z,10.55
2022-07-29T07:38:06.941Z,8.98
2022-07-29T07:40:37.329Z,11.30
2022-07-29T07:43:06.483Z,9.35
2022-07-29T07:45:35.482Z,8.23
2022-07-29T07:48:04.592Z,7.85
2022-07-29T07:50:33.502Z,9.57
2022-07-29T07:53:03.256Z,13.10
2022-07-29T07:55:53.441Z,9.45
2022-07-29T07:58:23.137Z,8.55
2022-07-29T08:00:52.349Z,9.25
2022-07-29T08:03:21.307Z,7.13
2022-07-29T08:05:52.090Z,8.13
2022-07-29T08:08:21.135Z,10.20
2022-07-29T08:10:57.057Z,8.88
2022-07-29T08:13:31.139Z,11.02
2022-07-29T08:16:02.206Z,7.35
2022-07-29T08:18:32.995Z,8.55
2022-07-29T08:21:02.131Z,10.63
2022-07-29T08:23:45.488Z,8.65
2022-07-29T08:26:15.617Z,7.60
2022-07-29T08:28:47.320Z,7.25
2022-07-29T08:31:16.636Z,10.52
2022-07-29T08:33:45.910Z,8.18
2022-07-29T08:36:15.346Z,6.90
2022-07-29T08:38:44.262Z,7.22
2022-07-29T08:41:13.299Z,10.07
2022-07-29T08:43:42.912Z,9.32
2022-07-29T08:46:13.365Z,8.70
2022-07-29T08:48:43.543Z,9.75
2022-07-29T08:51:17.124Z,7.18
2022-07-29T08:53:48.478Z,7.75
2022-07-29T08:56:19.136Z,6.85
2022-07-29T08:58:52.043Z,6.70
2022-07-29T09:01:34.960Z,6.05
2022-07-29T09:04:08.228Z,6.68
2022-07-29T09:06:41.489Z,6.25
2022-07-29T09:09:10.876Z,6.85
2022-07-29T09:11:39.916Z,6.13
2022-07-29T09:14:09.383Z,5.15
2022-07-29T09:17:01.002Z,5.15
2022-07-29T09:19:32.638Z,6.85
2022-07-29T09:22:04.077Z,5.50
2022-07-29T09:24:41.842Z,8.18
2022-07-29T09:27:22.810Z,11.00
2022-07-29T09:29:59.718Z,6.55
2022-07-29T09:32:30.662Z,6.18
2022-07-29T09:35:20.211Z,10.05
2022-07-29T09:37:50.183Z,7.25
2022-07-29T09:40:21.590Z,5.97
2022-07-29T09:42:59.361Z,5.45
2022-07-29T09:45:31.089Z,6.00
2022-07-29T09:48:14.768Z,5.85
2022-07-29T09:50:45.898Z,4.75
2022-07-29T09:53:33.511Z,5.22
2022-07-29T09:56:02.843Z,6.45
2022-07-29T09:58:31.822Z,5.32
2022-07-29T10:01:00.921Z,6.45
2022-07-29T10:03:31.385Z,6.47
2022-07-29T10:06:11.867Z,6.57
2022-07-29T10:08:40.909Z,7.88
2022-07-29T10:11:14.515Z,5.40
2022-07-29T10:13:44.802Z,6.47
2022-07-29T10:16:15.010Z,8.25
2022-07-29T10:18:47.885Z,5.32
2022-07-29T10:21:35.197Z,7.00
2022-07-29T10:24:07.105Z,7.93
2022-07-29T10:26:45.762Z,12.75
2022-07-29T10:29:15.109Z,6.70
2022-07-29T10:31:52.307Z,10.73
2022-07-29T10:34:31.942Z,6.90
2022-07-29T10:37:10.858Z,8.38
2022-07-29T10:39:55.337Z,7.68
2022-07-29T10:42:34.057Z,5.25
2022-07-29T10:45:05.846Z,7.03
2022-07-29T10:47:35.520Z,4.78
2022-07-29T10:50:07.713Z,5.38
2022-07-29T10:52:57.678Z,8.95
2022-07-29T10:55:37.782Z,4.07
2022-07-29T10:58:18.954Z,5.32
2022-07-29T11:00:49.690Z,5.35
2022-07-29T11:03:50.391Z,12.32
2022-07-29T11:09:25.806Z,6.78
2022-07-29T11:12:04.589Z,6.22
2022-07-29T11:15:00.329Z,6.35
2022-07-29T11:17:46.997Z,5.22
2022-07-29T11:20:37.762Z,9.30
2022-07-29T11:23:27.516Z,5.03
2022-07-29T11:26:18.609Z,7.80
2022-07-29T11:29:00.955Z,5.93
2022-07-29T11:31:42.776Z,5.07
2022-07-29T11:34:23.232Z,5.43
2022-07-29T11:39:50.948Z,6.30
2022-07-29T11:42:44.602Z,5.22
2022-07-29T11:45:44.461Z,8.90
2022-07-29T11:48:31.410Z,5.15
2022-07-29T11:50:58.288Z,6.93
2022-07-29T11:53:29.216Z,5.95
2022-07-29T11:56:03.776Z,6.95
2022-07-29T11:58:33.739Z,8.82
2022-07-29T12:01:04.932Z,12.27
2022-07-29T12:03:36.984Z,5.97
2022-07-29T12:06:15.053Z,5.18
2022-07-29T12:08:45.396Z,6.15
2022-07-29T12:11:21.633Z,5.22
2022-07-29T12:13:51.623Z,6.78
2022-07-29T12:16:26.080Z,8.32
2022-07-29T12:18:59.940Z,7.10
2022-07-29T12:21:29.483Z,6.65
2022-07-29T12:24:05.821Z,4.80
2022-07-29T12:26:51.999Z,6.30
2022-07-29T12:29:33.927Z,7.18
2022-07-29T12:32:14.921Z,5.13
2022-07-29T12:34:49.006Z,5.53
2022-07-29T12:37:18.278Z,5.55
2022-07-29T12:39:47.380Z,6.82
2022-07-29T12:42:19.184Z,5.95
2022-07-29T12:44:49.660Z,6.32
2022-07-29T12:47:20.285Z,7.18
2022-07-29T12:49:50.416Z,6.95
2022-07-29T12:52:26.615Z,5.30
2022-07-29T12:54:56.074Z,6.30
2022-07-29T12:57:26.952Z,7.55
2022-07-29T13:00:11.685Z,5.90
2022-07-29T13:02:42.479Z,9.67
2022-07-29T13:05:13.721Z,5.15
2022-07-29T13:07:54.964Z,5.88
2022-07-29T13:10:26.985Z,8.68
2022-07-29T13:13:09.210Z,7.18
2022-07-29T13:15:39.165Z,6.40
2022-07-29T13:18:28.772Z,7.25
2022-07-29T13:20:58.712Z,5.72
2022-07-29T13:23:27.713Z,5.40
2022-07-29T13:25:56.848Z,4.97
2022-07-29T13:28:27.319Z,5.35
2022-07-29T13:30:56.501Z,6.65
2022-07-29T13:33:25.490Z,6.53
2022-07-29T13:35:54.622Z,6.97
2022-07-29T13:38:23.648Z,7.60
2022-07-29T13:41:00.376Z,12.68
2022-07-29T13:43:30.752Z,4.95
2022-07-29T13:45:59.780Z,6.65
2022-07-29T13:48:28.799Z,8.02
2022-07-29T13:50:58.968Z,6.18
2022-07-29T13:53:28.951Z,7.35
2022-07-29T13:55:58.057Z,4.72
2022-07-29T13:58:26.970Z,7.40
2022-07-29T14:00:58.162Z,5.22
2022-07-29T14:03:27.357Z,7.10
2022-07-29T14:05:57.329Z,7.00
2022-07-29T14:08:26.362Z,6.18
2022-07-29T14:10:55.293Z,5.45
2022-07-29T14:13:26.363Z,6.10
2022-07-29T14:15:55.567Z,5.50
2022-07-29T14:18:25.927Z,9.48
2022-07-29T14:20:55.098Z,7.18
2022-07-29T14:23:24.262Z,8.05
2022-07-29T14:25:55.468Z,6.45
2022-07-29T14:28:24.987Z,7.00
2022-07-29T14:30:54.054Z,4.80
2022-07-29T14:33:22.982Z,5.10
2022-07-29T14:35:53.413Z,6.80
2022-07-29T14:38:22.369Z,7.72
2022-07-29T14:40:56.074Z,7.78
2022-07-29T14:43:25.043Z,9.02
2022-07-29T14:45:57.269Z,5.10
2022-07-29T14:48:30.533Z,6.85
2022-07-29T14:51:04.554Z,5.78
2022-07-29T14:53:34.438Z,5.47
2022-07-29T14:56:33.921Z,5.75
2022-07-29T14:58:52.514Z,6.47
2022-07-29T15:01:21.515Z,5.47
2022-07-29T15:03:51.545Z,9.30
2022-07-29T15:06:21.895Z,5.70
2022-07-29T15:08:50.919Z,10.40
2022-07-29T15:11:19.957Z,7.60
2022-07-29T15:13:49.270Z,10.68
2022-07-29T15:16:18.283Z,6.35
2022-07-29T15:18:47.280Z,7.32
2022-07-29T15:21:16.520Z,11.75
2022-07-29T15:23:47.213Z,8.57
2022-07-29T15:26:16.448Z,9.63
2022-07-29T15:28:45.396Z,9.15
2022-07-29T15:31:15.028Z,10.68
2022-07-29T15:33:43.984Z,8.82
2022-07-29T15:36:25.412Z,9.63
2022-07-29T15:39:03.921Z,6.93
2022-07-29T15:41:33.133Z,9.30
2022-07-29T15:44:02.097Z,7.25
2022-07-29T15:46:48.957Z,10.68
2022-07-29T15:49:17.980Z,7.60
2022-07-29T15:51:46.948Z,6.72
2022-07-29T15:54:17.710Z,7.90
2022-07-29T15:56:46.654Z,7.40
2022-07-29T15:59:22.488Z,10.20
2022-07-29T16:01:51.750Z,12.57
2022-07-29T16:04:21.213Z,7.25
2022-07-29T16:06:50.907Z,8.93
2022-07-29T16:09:21.677Z,11.65
2022-07-29T16:11:51.105Z,9.88
2022-07-29T16:14:20.352Z,8.98
2022-07-29T16:16:49.573Z,7.25
2022-07-29T16:19:18.559Z,8.43
2022-07-29T16:21:47.576Z,10.13
2022-07-29T16:24:16.715Z,8.20
2022-07-29T16:26:47.283Z,6.43
2022-07-29T16:29:18.222Z,11.40
2022-07-29T16:31:47.340Z,7.05
2022-07-29T16:34:16.351Z,7.53
2022-07-29T16:36:47.881Z,8.90
2022-07-29T16:39:17.118Z,6.47
2022-07-29T16:41:47.575Z,7.72
2022-07-29T16:44:16.550Z,7.15
2022-07-29T16:46:47.210Z,10.98
2022-07-29T16:49:19.445Z,5.63
2022-07-29T16:51:48.962Z,9.40
2022-07-29T16:54:18.360Z,15.07
2022-07-29T16:56:48.767Z,5.15
2022-07-29T16:59:17.815Z,8.70
2022-07-29T17:01:46.875Z,7.63
2022-07-29T17:04:16.330Z,7.60
2022-07-29T17:06:45.253Z,10.02
2022-07-29T17:09:16.099Z,6.22
2022-07-29T17:11:53.833Z,7.68
2022-07-29T17:14:27.364Z,5.88
2022-07-29T17:17:00.592Z,8.45
2022-07-29T17:19:32.295Z,8.18
2022-07-29T17:22:09.414Z,7.05
2022-07-29T17:24:41.212Z,8.02
2022-07-29T17:27:10.485Z,5.93
2022-07-29T17:29:40.939Z,10.30
2022-07-29T17:32:11.340Z,9.25
2022-07-29T17:34:41.683Z,8.55
2022-07-29T17:37:12.333Z,6.30
2022-07-29T17:39:42.570Z,7.88
2022-07-29T17:42:13.331Z,9.38
2022-07-29T17:44:43.751Z,9.02
2022-07-29T17:47:15.842Z,10.45
2022-07-29T17:49:45.566Z,9.32
2022-07-29T17:52:15.967Z,15.98
2022-07-29T17:54:44.925Z,9.77
2022-07-29T17:57:14.039Z,19.30
2022-07-29T17:59:44.481Z,6.15
2022-07-29T18:02:14.505Z,9.25
2022-07-29T18:04:43.683Z,9.55
2022-07-29T18:07:12.741Z,12.32
2022-07-29T18:09:41.797Z,11.90
2022-07-29T18:12:11.585Z,11.40
2022-07-29T18:14:40.660Z,13.20
2022-07-29T18:17:11.022Z,18.25
2022-07-29T18:19:40.106Z,7.10
2022-07-29T18:22:11.504Z,13.70
2022-07-29T18:24:40.585Z,9.10
2022-07-29T18:27:09.945Z,8.50
2022-07-29T18:29:38.975Z,10.63
2022-07-29T18:32:08.384Z,10.38
2022-07-29T18:34:38.693Z,8.20
2022-07-29T18:37:07.866Z,7.93
2022-07-29T18:39:36.860Z,8.50
2022-07-29T18:42:06.286Z,8.95
2022-07-29T18:44:41.585Z,8.18
2022-07-29T18:47:13.000Z,13.10
2022-07-29T18:49:43.729Z,7.53
2022-07-29T18:52:12.732Z,7.68
2022-07-29T18:54:41.778Z,18.48
2022-07-29T18:57:56.034Z,20.45
2022-07-29T18:59:59.969Z,9.85
2022-07-29T19:02:29.318Z,8.40
2022-07-29T19:05:00.115Z,10.43
2022-07-29T19:07:30.038Z,10.30
2022-07-29T19:09:58.938Z,10.43
2022-07-29T19:12:27.995Z,11.88
2022-07-29T19:14:56.989Z,10.15
2022-07-29T19:17:26.118Z,11.50
2022-07-29T19:19:55.111Z,11.65
2022-07-29T19:22:25.692Z,8.80
2022-07-29T19:24:54.822Z,8.25
2022-07-29T19:27:24.074Z,7.43
2022-07-29T19:29:55.803Z,9.88
2022-07-29T19:35:14.490Z,7.88
2022-07-29T19:37:44.928Z,11.15
2022-07-29T19:40:14.124Z,8.77
2022-07-29T19:42:43.224Z,7.78
2022-07-29T19:45:13.053Z,8.07
2022-07-29T19:47:42.014Z,9.77
2022-07-29T19:50:11.756Z,10.30
2022-07-29T19:52:40.750Z,22.50
2022-07-29T19:55:12.099Z,9.73
2022-07-29T19:57:41.964Z,13.05
2022-07-29T20:00:12.285Z,10.52
2022-07-29T20:02:42.876Z,6.95
2022-07-29T20:05:12.796Z,9.90
2022-07-29T20:07:41.768Z,10.32
2022-07-29T20:10:12.775Z,10.07
2022-07-29T20:12:42.775Z,11.05
2022-07-29T20:15:16.327Z,11.60
2022-07-29T20:17:45.792Z,9.15
2022-07-29T20:20:14.719Z,9.95
2022-07-29T20:22:44.376Z,10.65
2022-07-29T20:25:15.508Z,9.00
2022-07-29T20:27:44.780Z,10.80
2022-07-29T20:30:14.512Z,13.55
2022-07-29T20:32:43.623Z,7.80
2022-07-29T20:35:13.493Z,9.77
2022-07-29T20:37:55.928Z,7.57
2022-07-29T20:40:27.646Z,6.85
2022-07-29T20:42:57.075Z,9.38
2022-07-29T20:45:26.321Z,8.95
2022-07-29T20:47:55.338Z,6.95
2022-07-29T20:50:24.886Z,8.90
2022-07-29T20:52:54.057Z,10.75
2022-07-29T20:55:23.041Z,8.88
2022-07-29T20:57:53.538Z,9.27
2022-07-29T21:00:22.615Z,8.88
2022-07-29T21:02:51.790Z,7.32
2022-07-29T21:05:21.031Z,8.65
2022-07-29T21:07:49.965Z,11.77
2022-07-29T21:10:19.075Z,11.98
2022-07-29T21:12:48.153Z,8.20
2022-07-29T21:15:20.828Z,13.13
2022-07-29T21:17:52.030Z,9.10
2022-07-29T21:20:21.209Z,6.85
2022-07-29T21:22:56.607Z,8.52
2022-07-29T21:25:27.041Z,10.00
2022-07-29T21:28:13.623Z,7.70
2022-07-29T21:30:44.050Z,10.27
2022-07-29T21:33:13.104Z,7.20
2022-07-29T21:36:06.270Z,9.45
2022-07-29T21:38:32.326Z,10.50
2022-07-29T21:41:01.324Z,13.25
2022-07-29T21:43:30.434Z,8.25
2022-07-29T21:46:01.240Z,9.88
2022-07-29T21:48:30.627Z,9.10
2022-07-29T21:50:59.796Z,5.30
2022-07-29T21:53:29.017Z,11.23
2022-07-29T21:55:59.879Z,8.23
2022-07-29T21:58:28.779Z,7.50
2022-07-29T22:00:57.999Z,8.05
2022-07-29T22:03:28.569Z,10.93
2022-07-29T22:05:57.569Z,7.40
2022-07-29T22:08:26.589Z,7.13
2022-07-29T22:10:55.595Z,7.85
2022-07-29T22:13:24.524Z,12.38
2022-07-29T22:15:53.643Z,8.68
2022-07-29T22:18:22.545Z,6.88
2022-07-29T22:20:52.937Z,7.18
2022-07-29T22:23:22.032Z,6.70
2022-07-29T22:25:51.076Z,9.07
2022-07-29T22:28:20.302Z,8.35
2022-07-29T22:30:49.378Z,8.20
2022-07-29T22:33:18.435Z,7.57
2022-07-29T22:35:49.028Z,6.78
2022-07-29T22:38:19.656Z,6.68
2022-07-29T22:40:50.656Z,7.85
2022-07-29T22:43:19.991Z,8.02
2022-07-29T22:45:49.047Z,9.55
2022-07-29T22:48:18.151Z,10.07
2022-07-29T22:50:47.082Z,8.85
2022-07-29T22:53:16.143Z,8.13
2022-07-29T22:55:46.621Z,6.20
2022-07-29T22:58:15.717Z,8.30
2022-07-29T23:00:44.630Z,6.88
2022-07-29T23:03:13.784Z,7.97
2022-07-29T23:05:42.790Z,7.47
2022-07-29T23:08:11.779Z,8.05
2022-07-29T23:10:40.907Z,7.10
2022-07-29T23:13:11.760Z,10.23
2022-07-29T23:15:40.830Z,6.47
2022-07-29T23:18:09.863Z,9.00
2022-07-29T23:20:38.897Z,7.38
2022-07-29T23:23:07.866Z,8.13
2022-07-29T23:25:37.117Z,7.68
2022-07-29T23:28:06.443Z,8.70
2022-07-29T23:30:42.270Z,10.02
2022-07-29T23:33:11.309Z,9.00
2022-07-29T23:35:40.251Z,9.90
2022-07-29T23:38:09.400Z,8.65
2022-07-29T23:40:38.440Z,9.50
2022-07-29T23:43:09.009Z,10.80
2022-07-29T23:45:42.669Z,9.18
2022-07-29T23:48:15.793Z,9.45
2022-07-29T23:50:44.847Z,9.10
2022-07-29T23:53:13.887Z,12.55
2022-07-29T23:55:42.976Z,10.98
2022-07-29T23:58:12.085Z,7.40
